sensor_id;sensor_type;location;lat;lon;timestamp;P1;durP1;ratioP1;P2;durP2;ratioP2
73397;SDS011;63606;52.328;20.964;2022-10-22T00:01:42;35.67;;;16.42;;
73397;SDS011;63606;52.328;20.964;2022-10-22T00:04:07;34.20;;;16.85;;
73397;SDS011;63606;52.328;20.964;2022-10-22T00:06:33;35.72;;;17.27;;
73397;SDS011;63606;52.328;20.964;2022-10-22T00:08:58;31.23;;;15.75;;
73397;SDS011;63606;52.328;20.964;2022-10-22T00:11:25;35.40;;;15.43;;
73397;SDS011;63606;52.328;20.964;2022-10-22T00:13:51;32.10;;;16.42;;
73397;SDS011;63606;52.328;20.964;2022-10-22T00:16:16;31.48;;;16.92;;
73397;SDS011;63606;52.328;20.964;2022-10-22T00:18:42;28.73;;;15.55;;
73397;SDS011;63606;52.328;20.964;2022-10-22T00:21:08;32.97;;;17.35;;
73397;SDS011;63606;52.328;20.964;2022-10-22T00:23:34;33.67;;;17.00;;
73397;SDS011;63606;52.328;20.964;2022-10-22T00:25:59;28.75;;;16.45;;
73397;SDS011;63606;52.328;20.964;2022-10-22T00:28:25;29.23;;;15.82;;
73397;SDS011;63606;52.328;20.964;2022-10-22T00:30:57;34.80;;;17.17;;
73397;SDS011;63606;52.328;20.964;2022-10-22T00:33:24;34.15;;;16.42;;
73397;SDS011;63606;52.328;20.964;2022-10-22T00:35:50;31.02;;;16.52;;
73397;SDS011;63606;52.328;20.964;2022-10-22T00:38:16;32.50;;;16.23;;
73397;SDS011;63606;52.328;20.964;2022-10-22T00:40:41;28.67;;;15.82;;
73397;SDS011;63606;52.328;20.964;2022-10-22T00:43:10;32.22;;;16.30;;
73397;SDS011;63606;52.328;20.964;2022-10-22T00:45:37;32.70;;;17.45;;
73397;SDS011;63606;52.328;20.964;2022-10-22T00:48:07;32.85;;;16.13;;
73397;SDS011;63606;52.328;20.964;2022-10-22T00:53:14;30.58;;;14.80;;
73397;SDS011;63606;52.328;20.964;2022-10-22T00:55:43;30.15;;;15.52;;
73397;SDS011;63606;52.328;20.964;2022-10-22T00:58:11;31.15;;;15.60;;
73397;SDS011;63606;52.328;20.964;2022-10-22T01:00:38;29.15;;;15.02;;
73397;SDS011;63606;52.328;20.964;2022-10-22T01:03:04;31.13;;;15.68;;
73397;SDS011;63606;52.328;20.964;2022-10-22T01:05:30;30.58;;;15.93;;
73397;SDS011;63606;52.328;20.964;2022-10-22T01:08:02;30.55;;;16.75;;
73397;SDS011;63606;52.328;20.964;2022-10-22T01:16:11;32.67;;;15.48;;
73397;SDS011;63606;52.328;20.964;2022-10-22T01:21:44;27.27;;;14.93;;
73397;SDS011;63606;52.328;20.964;2022-10-22T01:31:54;28.38;;;14.65;;
73397;SDS011;63606;52.328;20.964;2022-10-22T01:34:23;32.00;;;15.85;;
73397;SDS011;63606;52.328;20.964;2022-10-22T01:36:51;33.47;;;15.73;;
73397;SDS011;63606;52.328;20.964;2022-10-22T01:39:18;30.08;;;15.07;;
73397;SDS011;63606;52.328;20.964;2022-10-22T01:41:45;30.63;;;15.60;;
73397;SDS011;63606;52.328;20.964;2022-10-22T01:46:56;29.90;;;15.95;;
73397;SDS011;63606;52.328;20.964;2022-10-22T01:49:32;25.90;;;13.43;;
73397;SDS011;63606;52.328;20.964;2022-10-22T01:55:52;30.92;;;15.00;;
73397;SDS011;63606;52.328;20.964;2022-10-22T02:01:25;29.63;;;15.10;;
73397;SDS011;63606;52.328;20.964;2022-10-22T02:06:53;32.60;;;15.07;;
73397;SDS011;63606;52.328;20.964;2022-10-22T02:09:23;29.33;;;16.13;;
73397;SDS011;63606;52.328;20.964;2022-10-22T02:11:52;34.92;;;15.15;;
73397;SDS011;63606;52.328;20.964;2022-10-22T02:14:19;30.40;;;15.23;;
73397;SDS011;63606;52.328;20.964;2022-10-22T02:16:46;29.50;;;15.48;;
73397;SDS011;63606;52.328;20.964;2022-10-22T02:21:52;29.00;;;15.35;;
73397;SDS011;63606;52.328;20.964;2022-10-22T02:24:18;31.38;;;16.23;;
73397;SDS011;63606;52.328;20.964;2022-10-22T02:26:54;32.22;;;17.17;;
73397;SDS011;63606;52.328;20.964;2022-10-22T02:29:25;30.60;;;16.17;;
73397;SDS011;63606;52.328;20.964;2022-10-22T02:31:57;30.48;;;15.43;;
73397;SDS011;63606;52.328;20.964;2022-10-22T02:34:29;27.98;;;14.82;;
73397;SDS011;63606;52.328;20.964;2022-10-22T02:36:56;30.38;;;15.10;;
73397;SDS011;63606;52.328;20.964;2022-10-22T02:39:26;31.83;;;15.82;;
73397;SDS011;63606;52.328;20.964;2022-10-22T02:41:54;32.55;;;16.42;;
73397;SDS011;63606;52.328;20.964;2022-10-22T02:44:22;32.50;;;16.30;;
73397;SDS011;63606;52.328;20.964;2022-10-22T02:46:48;34.28;;;17.23;;
73397;SDS011;63606;52.328;20.964;2022-10-22T02:49:14;31.23;;;16.35;;
73397;SDS011;63606;52.328;20.964;2022-10-22T02:51:39;30.42;;;15.98;;
73397;SDS011;63606;52.328;20.964;2022-10-22T02:54:05;31.95;;;16.77;;
73397;SDS011;63606;52.328;20.964;2022-10-22T02:56:31;34.40;;;16.40;;
73397;SDS011;63606;52.328;20.964;2022-10-22T02:58:57;28.40;;;15.68;;
73397;SDS011;63606;52.328;20.964;2022-10-22T03:01:23;32.72;;;16.05;;
73397;SDS011;63606;52.328;20.964;2022-10-22T03:03:48;32.40;;;16.42;;
73397;SDS011;63606;52.328;20.964;2022-10-22T03:06:14;32.33;;;16.40;;
73397;SDS011;63606;52.328;20.964;2022-10-22T03:08:39;34.95;;;17.42;;
73397;SDS011;63606;52.328;20.964;2022-10-22T03:11:05;31.58;;;17.30;;
73397;SDS011;63606;52.328;20.964;2022-10-22T03:13:31;35.13;;;17.42;;
73397;SDS011;63606;52.328;20.964;2022-10-22T03:15:56;30.95;;;16.80;;
73397;SDS011;63606;52.328;20.964;2022-10-22T03:18:22;36.03;;;17.50;;
73397;SDS011;63606;52.328;20.964;2022-10-22T03:20:48;32.30;;;16.77;;
73397;SDS011;63606;52.328;20.964;2022-10-22T03:23:14;32.20;;;16.25;;
73397;SDS011;63606;52.328;20.964;2022-10-22T03:25:43;36.75;;;17.75;;
73397;SDS011;63606;52.328;20.964;2022-10-22T03:28:10;35.70;;;16.38;;
73397;SDS011;63606;52.328;20.964;2022-10-22T03:30:41;32.75;;;16.17;;
73397;SDS011;63606;52.328;20.964;2022-10-22T03:33:06;33.05;;;16.00;;
73397;SDS011;63606;52.328;20.964;2022-10-22T03:35:32;33.00;;;17.05;;
73397;SDS011;63606;52.328;20.964;2022-10-22T03:38:04;33.10;;;17.08;;
73397;SDS011;63606;52.328;20.964;2022-10-22T03:40:29;29.90;;;15.13;;
73397;SDS011;63606;52.328;20.964;2022-10-22T03:42:55;31.95;;;16.58;;
73397;SDS011;63606;52.328;20.964;2022-10-22T03:45:22;32.85;;;16.23;;
73397;SDS011;63606;52.328;20.964;2022-10-22T03:47:48;33.28;;;16.50;;
73397;SDS011;63606;52.328;20.964;2022-10-22T03:50:13;29.45;;;16.55;;
73397;SDS011;63606;52.328;20.964;2022-10-22T03:52:39;31.92;;;16.23;;
73397;SDS011;63606;52.328;20.964;2022-10-22T03:55:05;32.45;;;16.65;;
73397;SDS011;63606;52.328;20.964;2022-10-22T03:57:31;31.25;;;16.45;;
73397;SDS011;63606;52.328;20.964;2022-10-22T03:59:57;31.15;;;15.50;;
73397;SDS011;63606;52.328;20.964;2022-10-22T04:02:22;27.75;;;15.30;;
73397;SDS011;63606;52.328;20.964;2022-10-22T04:04:48;29.50;;;14.68;;
73397;SDS011;63606;52.328;20.964;2022-10-22T04:07:13;30.02;;;14.93;;
73397;SDS011;63606;52.328;20.964;2022-10-22T04:09:39;29.73;;;15.38;;
73397;SDS011;63606;52.328;20.964;2022-10-22T04:12:05;27.35;;;14.20;;
73397;SDS011;63606;52.328;20.964;2022-10-22T04:14:32;28.02;;;15.07;;
73397;SDS011;63606;52.328;20.964;2022-10-22T04:16:58;29.55;;;14.32;;
73397;SDS011;63606;52.328;20.964;2022-10-22T04:19:23;27.40;;;14.40;;
73397;SDS011;63606;52.328;20.964;2022-10-22T04:21:49;29.40;;;15.50;;
73397;SDS011;63606;52.328;20.964;2022-10-22T04:24:15;29.60;;;14.60;;
73397;SDS011;63606;52.328;20.964;2022-10-22T04:26:40;30.25;;;14.50;;
73397;SDS011;63606;52.328;20.964;2022-10-22T04:29:06;29.05;;;15.55;;
73397;SDS011;63606;52.328;20.964;2022-10-22T04:31:32;27.45;;;13.80;;
73397;SDS011;63606;52.328;20.964;2022-10-22T04:33:58;29.27;;;14.73;;
73397;SDS011;63606;52.328;20.964;2022-10-22T04:36:24;29.70;;;14.80;;
73397;SDS011;63606;52.328;20.964;2022-10-22T04:38:52;28.58;;;14.60;;
73397;SDS011;63606;52.328;20.964;2022-10-22T04:41:20;29.00;;;14.70;;
73397;SDS011;63606;52.328;20.964;2022-10-22T04:43:48;31.85;;;13.95;;
73397;SDS011;63606;52.328;20.964;2022-10-22T04:46:14;30.30;;;14.88;;
73397;SDS011;63606;52.328;20.964;2022-10-22T04:48:41;33.60;;;15.00;;
73397;SDS011;63606;52.328;20.964;2022-10-22T04:51:10;32.58;;;15.80;;
73397;SDS011;63606;52.328;20.964;2022-10-22T04:53:37;30.27;;;14.70;;
73397;SDS011;63606;52.328;20.964;2022-10-22T04:56:24;30.77;;;15.35;;
73397;SDS011;63606;52.328;20.964;2022-10-22T04:58:57;29.23;;;14.10;;
73397;SDS011;63606;52.328;20.964;2022-10-22T05:01:25;31.33;;;15.05;;
73397;SDS011;63606;52.328;20.964;2022-10-22T05:03:53;27.48;;;14.45;;
73397;SDS011;63606;52.328;20.964;2022-10-22T05:06:20;30.42;;;14.55;;
73397;SDS011;63606;52.328;20.964;2022-10-22T05:08:47;28.77;;;14.52;;
73397;SDS011;63606;52.328;20.964;2022-10-22T05:11:18;28.08;;;14.48;;
73397;SDS011;63606;52.328;20.964;2022-10-22T05:13:45;30.42;;;14.80;;
73397;SDS011;63606;52.328;20.964;2022-10-22T05:16:11;28.17;;;14.23;;
73397;SDS011;63606;52.328;20.964;2022-10-22T05:18:38;28.80;;;14.65;;
73397;SDS011;63606;52.328;20.964;2022-10-22T05:21:13;30.70;;;14.45;;
73397;SDS011;63606;52.328;20.964;2022-10-22T05:23:40;29.10;;;14.75;;
73397;SDS011;63606;52.328;20.964;2022-10-22T05:26:07;32.80;;;15.23;;
73397;SDS011;63606;52.328;20.964;2022-10-22T05:28:35;30.58;;;14.25;;
73397;SDS011;63606;52.328;20.964;2022-10-22T05:31:01;31.83;;;15.20;;
73397;SDS011;63606;52.328;20.964;2022-10-22T05:33:28;31.40;;;16.23;;
73397;SDS011;63606;52.328;20.964;2022-10-22T05:35:55;37.05;;;16.27;;
73397;SDS011;63606;52.328;20.964;2022-10-22T05:38:21;34.33;;;15.75;;
73397;SDS011;63606;52.328;20.964;2022-10-22T05:40:47;36.25;;;15.20;;
73397;SDS011;63606;52.328;20.964;2022-10-22T05:43:13;34.05;;;15.05;;
73397;SDS011;63606;52.328;20.964;2022-10-22T05:45:39;31.02;;;15.57;;
73397;SDS011;63606;52.328;20.964;2022-10-22T05:48:06;27.42;;;15.02;;
73397;SDS011;63606;52.328;20.964;2022-10-22T05:50:36;31.60;;;15.52;;
73397;SDS011;63606;52.328;20.964;2022-10-22T05:53:03;28.75;;;14.68;;
73397;SDS011;63606;52.328;20.964;2022-10-22T05:55:30;36.08;;;16.08;;
73397;SDS011;63606;52.328;20.964;2022-10-22T05:58:01;31.98;;;15.00;;
73397;SDS011;63606;52.328;20.964;2022-10-22T06:00:27;32.10;;;14.93;;
73397;SDS011;63606;52.328;20.964;2022-10-22T06:02:53;31.98;;;15.05;;
73397;SDS011;63606;52.328;20.964;2022-10-22T06:05:18;32.35;;;15.32;;
73397;SDS011;63606;52.328;20.964;2022-10-22T06:07:44;33.70;;;15.68;;
73397;SDS011;63606;52.328;20.964;2022-10-22T06:10:13;32.00;;;15.48;;
73397;SDS011;63606;52.328;20.964;2022-10-22T06:12:41;33.15;;;15.50;;
73397;SDS011;63606;52.328;20.964;2022-10-22T06:15:08;34.13;;;16.30;;
73397;SDS011;63606;52.328;20.964;2022-10-22T06:17:35;32.08;;;16.00;;
73397;SDS011;63606;52.328;20.964;2022-10-22T06:20:01;34.08;;;16.05;;
73397;SDS011;63606;52.328;20.964;2022-10-22T06:22:26;31.48;;;15.18;;
73397;SDS011;63606;52.328;20.964;2022-10-22T06:24:52;31.52;;;15.90;;
73397;SDS011;63606;52.328;20.964;2022-10-22T06:27:17;28.40;;;14.80;;
73397;SDS011;63606;52.328;20.964;2022-10-22T06:29:43;29.92;;;15.30;;
73397;SDS011;63606;52.328;20.964;2022-10-22T06:32:08;33.25;;;16.75;;
73397;SDS011;63606;52.328;20.964;2022-10-22T06:34:34;34.85;;;16.45;;
73397;SDS011;63606;52.328;20.964;2022-10-22T06:36:59;33.33;;;16.40;;
73397;SDS011;63606;52.328;20.964;2022-10-22T06:39:25;31.42;;;16.50;;
73397;SDS011;63606;52.328;20.964;2022-10-22T06:41:50;34.17;;;16.35;;
73397;SDS011;63606;52.328;20.964;2022-10-22T06:44:17;28.92;;;15.05;;
73397;SDS011;63606;52.328;20.964;2022-10-22T06:46:43;30.50;;;15.30;;
73397;SDS011;63606;52.328;20.964;2022-10-22T06:49:10;31.63;;;15.48;;
73397;SDS011;63606;52.328;20.964;2022-10-22T06:51:38;31.58;;;15.70;;
73397;SDS011;63606;52.328;20.964;2022-10-22T06:54:04;30.58;;;16.48;;
73397;SDS011;63606;52.328;20.964;2022-10-22T06:56:29;32.75;;;15.13;;
73397;SDS011;63606;52.328;20.964;2022-10-22T06:58:55;29.80;;;14.65;;
73397;SDS011;63606;52.328;20.964;2022-10-22T07:01:23;29.40;;;15.60;;
73397;SDS011;63606;52.328;20.964;2022-10-22T07:03:51;30.02;;;14.80;;
73397;SDS011;63606;52.328;20.964;2022-10-22T07:06:18;29.95;;;15.07;;
73397;SDS011;63606;52.328;20.964;2022-10-22T07:08:44;27.38;;;14.55;;
73397;SDS011;63606;52.328;20.964;2022-10-22T07:11:14;26.92;;;14.63;;
73397;SDS011;63606;52.328;20.964;2022-10-22T07:13:42;28.15;;;15.23;;
73397;SDS011;63606;52.328;20.964;2022-10-22T07:16:09;29.23;;;14.25;;
73397;SDS011;63606;52.328;20.964;2022-10-22T07:18:35;27.40;;;15.60;;
73397;SDS011;63606;52.328;20.964;2022-10-22T07:21:03;30.10;;;15.20;;
73397;SDS011;63606;52.328;20.964;2022-10-22T07:23:29;29.38;;;15.10;;
73397;SDS011;63606;52.328;20.964;2022-10-22T07:25:55;32.42;;;15.27;;
73397;SDS011;63606;52.328;20.964;2022-10-22T07:28:21;31.38;;;15.73;;
73397;SDS011;63606;52.328;20.964;2022-10-22T07:30:47;28.55;;;15.35;;
73397;SDS011;63606;52.328;20.964;2022-10-22T07:33:13;32.40;;;15.63;;
73397;SDS011;63606;52.328;20.964;2022-10-22T07:35:39;35.35;;;16.58;;
73397;SDS011;63606;52.328;20.964;2022-10-22T07:38:05;35.25;;;16.98;;
73397;SDS011;63606;52.328;20.964;2022-10-22T07:40:31;38.00;;;17.48;;
73397;SDS011;63606;52.328;20.964;2022-10-22T07:42:57;34.58;;;17.08;;
73397;SDS011;63606;52.328;20.964;2022-10-22T07:45:23;37.97;;;17.70;;
73397;SDS011;63606;52.328;20.964;2022-10-22T07:47:48;41.53;;;18.63;;
73397;SDS011;63606;52.328;20.964;2022-10-22T07:50:15;42.40;;;18.27;;
73397;SDS011;63606;52.328;20.964;2022-10-22T07:52:41;42.85;;;18.60;;
73397;SDS011;63606;52.328;20.964;2022-10-22T07:55:06;40.28;;;17.92;;
73397;SDS011;63606;52.328;20.964;2022-10-22T07:57:32;41.15;;;17.75;;
73397;SDS011;63606;52.328;20.964;2022-10-22T07:59:59;43.05;;;18.05;;
73397;SDS011;63606;52.328;20.964;2022-10-22T08:02:25;42.03;;;16.65;;
73397;SDS011;63606;52.328;20.964;2022-10-22T08:04:50;44.20;;;18.20;;
73397;SDS011;63606;52.328;20.964;2022-10-22T08:07:16;41.17;;;16.10;;
73397;SDS011;63606;52.328;20.964;2022-10-22T08:09:43;38.53;;;16.08;;
73397;SDS011;63606;52.328;20.964;2022-10-22T08:12:08;39.20;;;15.80;;
73397;SDS011;63606;52.328;20.964;2022-10-22T08:14:34;37.40;;;17.50;;
73397;SDS011;63606;52.328;20.964;2022-10-22T08:16:59;34.63;;;15.90;;
73397;SDS011;63606;52.328;20.964;2022-10-22T08:19:25;33.42;;;15.50;;
73397;SDS011;63606;52.328;20.964;2022-10-22T08:21:52;39.50;;;15.88;;
73397;SDS011;63606;52.328;20.964;2022-10-22T08:24:18;36.53;;;16.98;;
73397;SDS011;63606;52.328;20.964;2022-10-22T08:26:43;34.92;;;16.00;;
73397;SDS011;63606;52.328;20.964;2022-10-22T08:29:09;35.38;;;15.73;;
73397;SDS011;63606;52.328;20.964;2022-10-22T08:31:35;37.45;;;16.85;;
73397;SDS011;63606;52.328;20.964;2022-10-22T08:34:00;37.35;;;17.20;;
73397;SDS011;63606;52.328;20.964;2022-10-22T08:36:26;35.85;;;16.30;;
73397;SDS011;63606;52.328;20.964;2022-10-22T08:38:51;36.33;;;15.98;;
73397;SDS011;63606;52.328;20.964;2022-10-22T08:41:21;32.70;;;16.13;;
73397;SDS011;63606;52.328;20.964;2022-10-22T08:44:00;36.58;;;17.02;;
73397;SDS011;63606;52.328;20.964;2022-10-22T08:49:02;36.42;;;16.27;;
73397;SDS011;63606;52.328;20.964;2022-10-22T08:51:33;38.25;;;16.98;;
73397;SDS011;63606;52.328;20.964;2022-10-22T08:59:50;39.50;;;17.15;;
73397;SDS011;63606;52.328;20.964;2022-10-22T09:07:54;36.10;;;16.02;;
73397;SDS011;63606;52.328;20.964;2022-10-22T09:10:23;36.83;;;17.05;;
73397;SDS011;63606;52.328;20.964;2022-10-22T09:12:53;34.20;;;16.48;;
73397;SDS011;63606;52.328;20.964;2022-10-22T09:15:18;34.40;;;17.15;;
73397;SDS011;63606;52.328;20.964;2022-10-22T09:20:52;32.78;;;16.20;;
73397;SDS011;63606;52.328;20.964;2022-10-22T09:23:36;31.52;;;15.13;;
73397;SDS011;63606;52.328;20.964;2022-10-22T09:26:15;34.35;;;16.33;;
73397;SDS011;63606;52.328;20.964;2022-10-22T09:28:41;29.73;;;15.63;;
73397;SDS011;63606;52.328;20.964;2022-10-22T09:31:11;29.85;;;14.77;;
73397;SDS011;63606;52.328;20.964;2022-10-22T09:33:39;31.85;;;16.55;;
73397;SDS011;63606;52.328;20.964;2022-10-22T09:36:06;35.75;;;17.67;;
73397;SDS011;63606;52.328;20.964;2022-10-22T09:38:47;32.78;;;17.13;;
73397;SDS011;63606;52.328;20.964;2022-10-22T09:41:15;43.72;;;16.45;;
73397;SDS011;63606;52.328;20.964;2022-10-22T09:43:45;32.08;;;15.82;;
73397;SDS011;63606;52.328;20.964;2022-10-22T09:46:19;37.05;;;17.13;;
73397;SDS011;63606;52.328;20.964;2022-10-22T09:48:56;39.08;;;16.95;;
73397;SDS011;63606;52.328;20.964;2022-10-22T09:54:01;38.40;;;17.65;;
73397;SDS011;63606;52.328;20.964;2022-10-22T09:56:45;40.17;;;16.33;;
73397;SDS011;63606;52.328;20.964;2022-10-22T09:59:15;38.65;;;16.92;;
73397;SDS011;63606;52.328;20.964;2022-10-22T10:01:42;39.33;;;18.02;;
73397;SDS011;63606;52.328;20.964;2022-10-22T10:04:09;39.85;;;17.15;;
73397;SDS011;63606;52.328;20.964;2022-10-22T10:06:38;39.63;;;16.35;;
73397;SDS011;63606;52.328;20.964;2022-10-22T10:09:24;38.70;;;16.05;;
73397;SDS011;63606;52.328;20.964;2022-10-22T10:22:57;41.30;;;17.52;;
73397;SDS011;63606;52.328;20.964;2022-10-22T10:26:09;45.88;;;17.40;;
73397;SDS011;63606;52.328;20.964;2022-10-22T10:31:30;40.95;;;18.77;;
73397;SDS011;63606;52.328;20.964;2022-10-22T10:37:17;41.45;;;17.88;;
73397;SDS011;63606;52.328;20.964;2022-10-22T10:42:25;46.20;;;18.73;;
73397;SDS011;63606;52.328;20.964;2022-10-22T10:51:02;45.50;;;18.15;;
73397;SDS011;63606;52.328;20.964;2022-10-22T10:53:46;46.17;;;19.65;;
73397;SDS011;63606;52.328;20.964;2022-10-22T10:56:29;46.05;;;19.60;;
73397;SDS011;63606;52.328;20.964;2022-10-22T11:08:31;48.92;;;19.00;;
73397;SDS011;63606;52.328;20.964;2022-10-22T11:11:09;42.33;;;17.33;;
73397;SDS011;63606;52.328;20.964;2022-10-22T11:13:52;46.45;;;19.42;;
73397;SDS011;63606;52.328;20.964;2022-10-22T11:16:31;42.60;;;17.90;;
73397;SDS011;63606;52.328;20.964;2022-10-22T11:29:22;46.30;;;19.25;;
73397;SDS011;63606;52.328;20.964;2022-10-22T11:31:51;48.00;;;20.27;;
73397;SDS011;63606;52.328;20.964;2022-10-22T11:34:24;44.45;;;20.17;;
73397;SDS011;63606;52.328;20.964;2022-10-22T11:36:56;43.72;;;20.88;;
73397;SDS011;63606;52.328;20.964;2022-10-22T11:39:56;48.75;;;20.67;;
73397;SDS011;63606;52.328;20.964;2022-10-22T11:47:25;46.35;;;20.25;;
73397;SDS011;63606;52.328;20.964;2022-10-22T11:49:54;42.55;;;19.40;;
73397;SDS011;63606;52.328;20.964;2022-10-22T11:52:36;45.58;;;19.70;;
73397;SDS011;63606;52.328;20.964;2022-10-22T11:55:26;45.85;;;20.35;;
73397;SDS011;63606;52.328;20.964;2022-10-22T11:57:59;45.85;;;20.38;;
73397;SDS011;63606;52.328;20.964;2022-10-22T12:00:33;47.58;;;20.63;;
73397;SDS011;63606;52.328;20.964;2022-10-22T12:03:20;44.70;;;19.88;;
73397;SDS011;63606;52.328;20.964;2022-10-22T12:08:29;45.60;;;19.52;;
73397;SDS011;63606;52.328;20.964;2022-10-22T12:16:35;46.47;;;19.83;;
73397;SDS011;63606;52.328;20.964;2022-10-22T12:19:11;45.85;;;20.85;;
73397;SDS011;63606;52.328;20.964;2022-10-22T12:21:40;45.05;;;20.48;;
73397;SDS011;63606;52.328;20.964;2022-10-22T12:24:11;45.78;;;20.30;;
73397;SDS011;63606;52.328;20.964;2022-10-22T12:26:39;49.97;;;21.73;;
73397;SDS011;63606;52.328;20.964;2022-10-22T12:29:08;43.33;;;20.35;;
73397;SDS011;63606;52.328;20.964;2022-10-22T12:31:37;50.17;;;20.27;;
73397;SDS011;63606;52.328;20.964;2022-10-22T12:34:04;48.90;;;21.20;;
73397;SDS011;63606;52.328;20.964;2022-10-22T12:36:31;46.97;;;20.58;;
73397;SDS011;63606;52.328;20.964;2022-10-22T12:39:00;50.13;;;21.13;;
73397;SDS011;63606;52.328;20.964;2022-10-22T12:41:35;47.95;;;20.17;;
73397;SDS011;63606;52.328;20.964;2022-10-22T12:44:02;47.25;;;20.75;;
73397;SDS011;63606;52.328;20.964;2022-10-22T12:46:29;45.65;;;21.10;;
73397;SDS011;63606;52.328;20.964;2022-10-22T12:49:05;46.53;;;21.20;;
73397;SDS011;63606;52.328;20.964;2022-10-22T12:51:36;54.20;;;21.35;;
73397;SDS011;63606;52.328;20.964;2022-10-22T12:56:58;48.72;;;20.63;;
73397;SDS011;63606;52.328;20.964;2022-10-22T12:59:34;49.90;;;20.27;;
73397;SDS011;63606;52.328;20.964;2022-10-22T13:02:03;51.80;;;21.25;;
73397;SDS011;63606;52.328;20.964;2022-10-22T13:04:41;51.53;;;21.23;;
73397;SDS011;63606;52.328;20.964;2022-10-22T13:09:45;54.42;;;21.88;;
73397;SDS011;63606;52.328;20.964;2022-10-22T13:12:24;57.33;;;21.40;;
73397;SDS011;63606;52.328;20.964;2022-10-22T13:15:45;45.03;;;20.73;;
73397;SDS011;63606;52.328;20.964;2022-10-22T13:18:00;52.20;;;20.67;;
73397;SDS011;63606;52.328;20.964;2022-10-22T13:20:26;54.33;;;21.33;;
73397;SDS011;63606;52.328;20.964;2022-10-22T13:22:57;50.10;;;21.00;;
73397;SDS011;63606;52.328;20.964;2022-10-22T13:25:32;48.90;;;21.60;;
73397;SDS011;63606;52.328;20.964;2022-10-22T13:28:00;50.65;;;21.02;;
73397;SDS011;63606;52.328;20.964;2022-10-22T13:30:37;41.70;;;19.67;;
73397;SDS011;63606;52.328;20.964;2022-10-22T13:33:05;53.88;;;22.48;;
73397;SDS011;63606;52.328;20.964;2022-10-22T13:35:42;47.97;;;20.08;;
73397;SDS011;63606;52.328;20.964;2022-10-22T13:38:17;47.28;;;20.33;;
73397;SDS011;63606;52.328;20.964;2022-10-22T13:40:45;48.55;;;20.17;;
73397;SDS011;63606;52.328;20.964;2022-10-22T13:43:11;48.08;;;20.85;;
73397;SDS011;63606;52.328;20.964;2022-10-22T13:45:36;43.08;;;21.08;;
73397;SDS011;63606;52.328;20.964;2022-10-22T13:48:02;46.33;;;21.27;;
73397;SDS011;63606;52.328;20.964;2022-10-22T13:50:28;45.67;;;20.70;;
73397;SDS011;63606;52.328;20.964;2022-10-22T13:52:56;50.25;;;20.35;;
73397;SDS011;63606;52.328;20.964;2022-10-22T13:57:49;39.20;;;18.73;;
73397;SDS011;63606;52.328;20.964;2022-10-22T14:00:17;44.70;;;18.95;;
73397;SDS011;63606;52.328;20.964;2022-10-22T14:02:45;42.97;;;19.92;;
73397;SDS011;63606;52.328;20.964;2022-10-22T14:05:13;44.88;;;19.65;;
73397;SDS011;63606;52.328;20.964;2022-10-22T14:07:40;43.47;;;20.35;;
73397;SDS011;63606;52.328;20.964;2022-10-22T14:10:13;45.88;;;20.27;;
73397;SDS011;63606;52.328;20.964;2022-10-22T14:12:49;47.67;;;20.77;;
73397;SDS011;63606;52.328;20.964;2022-10-22T14:15:17;44.97;;;21.02;;
73397;SDS011;63606;52.328;20.964;2022-10-22T14:17:45;51.40;;;20.58;;
73397;SDS011;63606;52.328;20.964;2022-10-22T14:20:29;46.72;;;21.02;;
73397;SDS011;63606;52.328;20.964;2022-10-22T14:22:59;45.53;;;21.38;;
73397;SDS011;63606;52.328;20.964;2022-10-22T14:25:35;44.33;;;20.25;;
73397;SDS011;63606;52.328;20.964;2022-10-22T14:28:01;41.13;;;18.92;;
73397;SDS011;63606;52.328;20.964;2022-10-22T14:30:26;51.35;;;21.15;;
73397;SDS011;63606;52.328;20.964;2022-10-22T14:32:54;49.85;;;20.98;;
73397;SDS011;63606;52.328;20.964;2022-10-22T14:35:22;48.67;;;21.85;;
73397;SDS011;63606;52.328;20.964;2022-10-22T14:37:48;45.05;;;20.30;;
73397;SDS011;63606;52.328;20.964;2022-10-22T14:40:15;45.42;;;21.05;;
73397;SDS011;63606;52.328;20.964;2022-10-22T14:42:44;42.88;;;19.88;;
73397;SDS011;63606;52.328;20.964;2022-10-22T14:47:38;43.95;;;19.08;;
73397;SDS011;63606;52.328;20.964;2022-10-22T14:50:04;48.92;;;20.00;;
73397;SDS011;63606;52.328;20.964;2022-10-22T14:52:30;48.70;;;21.85;;
73397;SDS011;63606;52.328;20.964;2022-10-22T14:54:56;45.97;;;20.48;;
73397;SDS011;63606;52.328;20.964;2022-10-22T14:57:21;49.47;;;21.48;;
73397;SDS011;63606;52.328;20.964;2022-10-22T14:59:47;47.42;;;20.55;;
73397;SDS011;63606;52.328;20.964;2022-10-22T15:02:12;47.45;;;21.73;;
73397;SDS011;63606;52.328;20.964;2022-10-22T15:04:38;42.67;;;20.90;;
73397;SDS011;63606;52.328;20.964;2022-10-22T15:07:04;45.97;;;19.95;;
73397;SDS011;63606;52.328;20.964;2022-10-22T15:09:29;47.95;;;20.27;;
73397;SDS011;63606;52.328;20.964;2022-10-22T15:11:55;38.75;;;18.42;;
73397;SDS011;63606;52.328;20.964;2022-10-22T15:14:21;47.15;;;20.88;;
73397;SDS011;63606;52.328;20.964;2022-10-22T15:16:46;42.83;;;20.77;;
73397;SDS011;63606;52.328;20.964;2022-10-22T15:19:12;50.10;;;21.33;;
73397;SDS011;63606;52.328;20.964;2022-10-22T15:21:38;50.22;;;22.13;;
73397;SDS011;63606;52.328;20.964;2022-10-22T15:24:03;46.92;;;21.45;;
73397;SDS011;63606;52.328;20.964;2022-10-22T15:26:29;53.40;;;21.05;;
73397;SDS011;63606;52.328;20.964;2022-10-22T15:28:55;46.17;;;19.90;;
73397;SDS011;63606;52.328;20.964;2022-10-22T15:34:06;50.53;;;21.42;;
73397;SDS011;63606;52.328;20.964;2022-10-22T15:36:32;47.92;;;22.10;;
73397;SDS011;63606;52.328;20.964;2022-10-22T15:38:57;47.00;;;21.02;;
73397;SDS011;63606;52.328;20.964;2022-10-22T15:41:23;46.42;;;22.13;;
73397;SDS011;63606;52.328;20.964;2022-10-22T15:43:48;51.25;;;24.50;;
73397;SDS011;63606;52.328;20.964;2022-10-22T15:46:15;59.90;;;24.98;;
73397;SDS011;63606;52.328;20.964;2022-10-22T15:48:43;55.75;;;25.75;;
73397;SDS011;63606;52.328;20.964;2022-10-22T15:51:13;55.33;;;24.90;;
73397;SDS011;63606;52.328;20.964;2022-10-22T15:53:40;55.55;;;26.15;;
73397;SDS011;63606;52.328;20.964;2022-10-22T15:56:07;55.90;;;26.05;;
73397;SDS011;63606;52.328;20.964;2022-10-22T15:58:33;57.60;;;25.42;;
73397;SDS011;63606;52.328;20.964;2022-10-22T16:01:02;59.05;;;26.40;;
73397;SDS011;63606;52.328;20.964;2022-10-22T16:03:30;51.72;;;25.58;;
73397;SDS011;63606;52.328;20.964;2022-10-22T16:05:55;56.50;;;24.27;;
73397;SDS011;63606;52.328;20.964;2022-10-22T16:08:23;54.97;;;25.58;;
73397;SDS011;63606;52.328;20.964;2022-10-22T16:10:48;54.47;;;25.73;;
73397;SDS011;63606;52.328;20.964;2022-10-22T16:13:15;60.83;;;26.40;;
73397;SDS011;63606;52.328;20.964;2022-10-22T16:15:40;58.22;;;25.95;;
73397;SDS011;63606;52.328;20.964;2022-10-22T16:18:06;57.65;;;26.60;;
73397;SDS011;63606;52.328;20.964;2022-10-22T16:20:32;55.13;;;26.00;;
73397;SDS011;63606;52.328;20.964;2022-10-22T16:23:03;53.47;;;25.65;;